Time;durP1;ratioP1;P1;durP2;ratioP2;P2;SDS_P1;SDS_P2;PMS_P1;PMS_P2;Temp;Humidity;BMP_temperature;BMP_pressure;BME280_temperature;BME280_humidity;BME280_pressure;Samples;Min_cycle;Max_cycle;Signal;HPM_P1;HPM_P2
2023/03/25 00:00:16;;;;;;;11.52;5.95;;;;;;;;;;5106305;28;20159;-90
2023/03/25 00:02:47;;;;;;;9.65;4.55;;;;;;;;;;5094857;28;20517;-90
2023/03/25 00:05:17;;;;;;;16.55;9.75;;;;;;;;;;5095961;28;20509;-90
2023/03/25 00:07:45;;;;;;;14.15;6.30;;;;;;;;;;5094948;28;20450;-90
2023/03/25 00:10:13;;;;;;;10.70;6.30;;;;;;;;;;5095107;28;20047;-90
2023/03/25 00:12:41;;;;;;;13.75;7.38;;;;;;;;;;5094390;28;20131;-91
2023/03/25 00:15:10;;;;;;;12.63;8.52;;;;;;;;;;5094508;28;20466;-90
2023/03/25 00:17:38;;;;;;;13.43;8.63;;;;;;;;;;5095006;28;20048;-90
2023/03/25 00:20:08;;;;;;;10.88;7.90;;;;;;;;;;5096717;28;20060;-92
2023/03/25 00:22:39;;;;;;;6.07;5.07;;;;;;;;;;5094166;28;20055;-92
2023/03/25 00:25:15;;;;;;;8.38;4.43;;;;;;;;;;5094825;28;20097;-91
2023/03/25 00:27:45;;;;;;;5.35;4.03;;;;;;;;;;5094658;28;20064;-90
2023/03/25 00:30:14;;;;;;;6.30;2.92;;;;;;;;;;5095038;28;20048;-90
2023/03/25 00:32:44;;;;;;;3.90;2.35;;;;;;;;;;5094011;28;20058;-91
2023/03/25 00:35:12;;;;;;;4.35;2.17;;;;;;;;;;5093634;28;20048;-90
2023/03/25 00:37:40;;;;;;;6.30;2.35;;;;;;;;;;5093527;28;20052;-90
2023/03/25 00:40:07;;;;;;;3.63;1.80;;;;;;;;;;5095211;28;20051;-90
2023/03/25 00:42:35;;;;;;;3.97;2.15;;;;;;;;;;5093688;28;20048;-91
2023/03/25 00:45:02;;;;;;;4.47;1.85;;;;;;;;;;5094195;28;20052;-90
2023/03/25 00:47:30;;;;;;;4.18;1.45;;;;;;;;;;5094790;28;20051;-91
2023/03/25 00:49:57;;;;;;;4.20;1.60;;;;;;;;;;5093716;28;20055;-93
2023/03/25 00:52:24;;;;;;;2.13;1.38;;;;;;;;;;5094005;28;20047;-91
2023/03/25 00:54:52;;;;;;;3.75;1.52;;;;;;;;;;5096323;28;20058;-92
2023/03/25 00:57:20;;;;;;;3.03;1.35;;;;;;;;;;5093160;28;20060;-93
2023/03/25 00:59:47;;;;;;;2.55;1.45;;;;;;;;;;5094176;28;20050;-91
2023/03/25 01:02:17;;;;;;;2.22;1.23;;;;;;;;;;5094754;28;20101;-92
2023/03/25 01:04:45;;;;;;;4.10;0.82;;;;;;;;;;5093699;28;20048;-91
2023/03/25 01:07:14;;;;;;;2.83;1.00;;;;;;;;;;5093982;28;20485;-90
2023/03/25 01:09:45;;;;;;;2.15;0.85;;;;;;;;;;5096647;28;20048;-90
2023/03/25 01:12:13;;;;;;;3.45;1.20;;;;;;;;;;5099327;28;20039;-88
2023/03/25 01:14:40;;;;;;;1.25;0.95;;;;;;;;;;5111042;28;20044;-94
2023/03/25 01:17:08;;;;;;;2.30;1.08;;;;;;;;;;5094082;28;20112;-89
2023/03/25 01:19:35;;;;;;;3.03;1.00;;;;;;;;;;5093241;28;20079;-89
2023/03/25 01:22:02;;;;;;;2.22;0.93;;;;;;;;;;5107157;28;20078;-90
2023/03/25 01:24:30;;;;;;;2.22;1.10;;;;;;;;;;5102292;28;20550;-89
2023/03/25 01:26:58;;;;;;;1.98;0.80;;;;;;;;;;5093014;28;20135;-91
2023/03/25 01:29:25;;;;;;;4.68;1.40;;;;;;;;;;5092743;28;20048;-90
2023/03/25 01:31:52;;;;;;;1.80;1.02;;;;;;;;;;5093275;28;20058;-90
2023/03/25 01:34:20;;;;;;;1.27;1.00;;;;;;;;;;5092881;28;20055;-91
2023/03/25 01:36:48;;;;;;;1.55;0.80;;;;;;;;;;5092436;28;20135;-93
2023/03/25 01:39:17;;;;;;;1.77;0.90;;;;;;;;;;5093168;28;20124;-93
2023/03/25 01:41:46;;;;;;;1.65;0.80;;;;;;;;;;5092963;28;20055;-90
2023/03/25 01:44:23;;;;;;;2.08;0.88;;;;;;;;;;5092650;28;20075;-91
2023/03/25 01:46:51;;;;;;;1.65;0.70;;;;;;;;;;5093044;28;20139;-93
2023/03/25 01:49:28;;;;;;;4.38;0.90;;;;;;;;;;5092844;28;20131;-93
2023/03/25 01:51:59;;;;;;;2.35;0.98;;;;;;;;;;5093365;28;20044;-93
2023/03/25 01:54:26;;;;;;;3.10;0.77;;;;;;;;;;5093687;28;20143;-93
2023/03/25 01:56:54;;;;;;;1.70;0.70;;;;;;;;;;5092995;28;20048;-92
2023/03/25 01:59:24;;;;;;;1.80;0.65;;;;;;;;;;5096036;28;20051;-95
2023/03/25 02:01:52;;;;;;;2.40;0.80;;;;;;;;;;5093957;28;20491;-94
2023/03/25 02:04:26;;;;;;;4.38;0.70;;;;;;;;;;5094093;28;20044;-93
2023/03/25 02:06:54;;;;;;;1.30;0.82;;;;;;;;;;5093911;28;20167;-91
2023/03/25 02:09:24;;;;;;;1.15;1.05;;;;;;;;;;5093888;28;20048;-93
2023/03/25 02:11:53;;;;;;;4.03;0.80;;;;;;;;;;5094390;28;20120;-94
2023/03/25 02:14:23;;;;;;;2.67;0.70;;;;;;;;;;5095188;28;20399;-93
2023/03/25 02:16:50;;;;;;;3.08;1.00;;;;;;;;;;5092789;28;20048;-92
2023/03/25 02:19:18;;;;;;;0.95;0.70;;;;;;;;;;5094463;28;20044;-94
2023/03/25 02:22:02;;;;;;;1.35;0.90;;;;;;;;;;5094440;28;20078;-94
2023/03/25 02:24:52;;;;;;;6.18;1.10;;;;;;;;;;5095227;28;20138;-92
2023/03/25 02:27:27;;;;;;;2.35;0.80;;;;;;;;;;5101486;28;20103;-90
2023/03/25 02:30:10;;;;;;;5.05;0.88;;;;;;;;;;5112164;28;20139;-94
2023/03/25 02:32:56;;;;;;;1.95;0.77;;;;;;;;;;5096558;28;20051;-93
2023/03/25 02:35:27;;;;;;;5.03;0.90;;;;;;;;;;5095317;28;20048;-92
2023/03/25 02:38:05;;;;;;;3.80;0.90;;;;;;;;;;5096010;28;20066;-95
2023/03/25 02:40:38;;;;;;;3.30;1.23;;;;;;;;;;5094605;28;20054;-94
2023/03/25 02:43:09;;;;;;;2.20;0.88;;;;;;;;;;5093269;28;20142;-93
2023/03/25 02:45:40;;;;;;;4.57;0.60;;;;;;;;;;5092943;28;20079;-93
2023/03/25 02:48:10;;;;;;;2.97;0.70;;;;;;;;;;5093041;28;20071;-93
2023/03/25 02:50:41;;;;;;;2.10;0.80;;;;;;;;;;5092682;28;20498;-94
2023/03/25 02:53:12;;;;;;;1.67;0.73;;;;;;;;;;5094553;28;20489;-96
2023/03/25 02:55:41;;;;;;;2.50;0.40;;;;;;;;;;5095323;28;20051;-94
2023/03/25 02:58:11;;;;;;;1.02;0.35;;;;;;;;;;5100031;28;20075;-96
2023/03/25 03:00:47;;;;;;;1.23;0.30;;;;;;;;;;5098162;28;20044;-93
2023/03/25 03:03:14;;;;;;;0.63;0.22;;;;;;;;;;5097464;28;20411;-93
2023/03/25 03:05:43;;;;;;;1.63;0.50;;;;;;;;;;5095611;28;20048;-93
2023/03/25 03:08:29;;;;;;;0.50;0.20;;;;;;;;;;5098897;28;20059;-89
2023/03/25 03:11:02;;;;;;;0.30;0.20;;;;;;;;;;5096699;28;20074;-90
2023/03/25 03:13:48;;;;;;;1.00;0.20;;;;;;;;;;5097044;28;20044;-90
2023/03/25 03:16:36;;;;;;;0.20;0.10;;;;;;;;;;5095175;28;20040;-89
2023/03/25 03:19:07;;;;;;;0.98;0.20;;;;;;;;;;5096703;28;20052;-90
2023/03/25 03:21:45;;;;;;;0.85;0.30;;;;;;;;;;5096743;28;20055;-91
2023/03/25 03:24:16;;;;;;;1.45;0.50;;;;;;;;;;5095478;28;20506;-92
2023/03/25 03:26:46;;;;;;;0.50;0.20;;;;;;;;;;5094571;28;20056;-90
2023/03/25 03:29:16;;;;;;;1.75;0.35;;;;;;;;;;5096214;28;20062;-90
2023/03/25 03:31:53;;;;;;;1.88;0.15;;;;;;;;;;5095186;28;20048;-90
2023/03/25 03:34:39;;;;;;;1.45;0.40;;;;;;;;;;5095369;28;20453;-91
2023/03/25 03:37:08;;;;;;;0.40;0.20;;;;;;;;;;5095792;28;20109;-90
2023/03/25 03:39:36;;;;;;;0.65;0.30;;;;;;;;;;5096070;28;20048;-90
2023/03/25 03:42:10;;;;;;;0.57;0.22;;;;;;;;;;5103167;28;20099;-92
2023/03/25 03:44:39;;;;;;;2.88;0.20;;;;;;;;;;5118369;28;20034;-90
2023/03/25 03:47:16;;;;;;;0.95;0.35;;;;;;;;;;5100327;28;20122;-91
2023/03/25 03:49:58;;;;;;;2.70;0.60;;;;;;;;;;5096407;28;20048;-91
2023/03/25 03:52:30;;;;;;;1.75;0.30;;;;;;;;;;5095350;28;20047;-90
2023/03/25 03:55:00;;;;;;;2.13;0.30;;;;;;;;;;5095202;28;20044;-92
2023/03/25 03:57:33;;;;;;;1.15;0.50;;;;;;;;;;5095910;28;20052;-91
2023/03/25 04:00:06;;;;;;;4.22;0.40;;;;;;;;;;5094992;28;20055;-93
2023/03/25 04:02:39;;;;;;;3.85;0.45;;;;;;;;;;5095167;28;20063;-91
2023/03/25 04:05:11;;;;;;;1.70;0.25;;;;;;;;;;5094570;28;20074;-90
2023/03/25 04:07:41;;;;;;;0.50;0.30;;;;;;;;;;5093529;28;20139;-90
2023/03/25 04:10:13;;;;;;;4.72;0.90;;;;;;;;;;5095693;28;20052;-91
2023/03/25 04:12:43;;;;;;;1.70;0.60;;;;;;;;;;5094828;28;20554;-90
2023/03/25 04:15:10;;;;;;;2.08;0.28;;;;;;;;;;5094619;28;20048;-91
2023/03/25 04:17:38;;;;;;;3.03;0.38;;;;;;;;;;5094334;28;20060;-91
2023/03/25 04:20:07;;;;;;;0.95;0.30;;;;;;;;;;5095052;28;20044;-90
2023/03/25 04:22:36;;;;;;;1.45;0.40;;;;;;;;;;5095608;28;20048;-93
2023/03/25 04:25:07;;;;;;;2.88;0.40;;;;;;;;;;5094575;28;20082;-90
2023/03/25 04:27:36;;;;;;;2.60;0.60;;;;;;;;;;5094020;28;20051;-90
2023/03/25 04:30:05;;;;;;;1.73;0.40;;;;;;;;;;5094058;28;20043;-90
2023/03/25 04:32:33;;;;;;;1.02;0.60;;;;;;;;;;5093847;28;20051;-90
2023/03/25 04:35:01;;;;;;;1.92;0.43;;;;;;;;;;5093790;28;20047;-91
2023/03/25 04:37:28;;;;;;;8.70;0.85;;;;;;;;;;5093949;28;20062;-91
2023/03/25 04:39:58;;;;;;;3.30;0.60;;;;;;;;;;5094364;28;20075;-90
2023/03/25 04:42:31;;;;;;;2.13;0.40;;;;;;;;;;5093876;28;20059;-91
2023/03/25 04:44:59;;;;;;;1.60;0.47;;;;;;;;;;5093733;28;20461;-91
2023/03/25 04:47:26;;;;;;;1.95;0.50;;;;;;;;;;5095499;28;20526;-91
2023/03/25 04:49:54;;;;;;;3.63;0.60;;;;;;;;;;5096623;28;20142;-91
2023/03/25 04:52:21;;;;;;;2.05;0.60;;;;;;;;;;5093589;28;20040;-90
2023/03/25 04:54:49;;;;;;;1.42;0.30;;;;;;;;;;5093549;28;20087;-90
2023/03/25 04:57:17;;;;;;;1.17;0.50;;;;;;;;;;5096808;28;20048;-90
2023/03/25 04:59:44;;;;;;;2.08;1.55;;;;;;;;;;5108548;28;20079;-91
2023/03/25 05:02:12;;;;;;;1.55;0.73;;;;;;;;;;5094047;28;20447;-91
2023/03/25 05:04:40;;;;;;;1.75;0.60;;;;;;;;;;5093228;28;20040;-91
2023/03/25 05:07:08;;;;;;;2.05;0.60;;;;;;;;;;5093483;28;20058;-90
2023/03/25 05:09:36;;;;;;;3.28;0.70;;;;;;;;;;5093411;28;20051;-91
2023/03/25 05:12:04;;;;;;;3.83;0.70;;;;;;;;;;5093431;28;20058;-91
2023/03/25 05:14:32;;;;;;;1.67;1.13;;;;;;;;;;5093101;28;20126;-91
2023/03/25 05:16:59;;;;;;;6.78;2.90;;;;;;;;;;5093188;28;20048;-90
2023/03/25 05:19:27;;;;;;;5.22;2.55;;;;;;;;;;5093264;28;20048;-91
2023/03/25 05:21:55;;;;;;;3.72;2.25;;;;;;;;;;5093147;28;20060;-91
2023/03/25 05:24:22;;;;;;;3.72;1.20;;;;;;;;;;5093325;28;20077;-92
2023/03/25 05:26:49;;;;;;;8.95;1.17;;;;;;;;;;5093187;28;20054;-91
2023/03/25 05:29:16;;;;;;;4.13;1.08;;;;;;;;;;5093371;28;20495;-91
2023/03/25 05:31:45;;;;;;;4.03;0.80;;;;;;;;;;5093104;28;20549;-91
2023/03/25 05:34:13;;;;;;;5.97;0.88;;;;;;;;;;5093157;28;20044;-91
2023/03/25 05:36:40;;;;;;;12.15;4.00;;;;;;;;;;5092582;28;20083;-92
2023/03/25 05:39:09;;;;;;;3.70;2.20;;;;;;;;;;5092761;28;20518;-91
2023/03/25 05:41:39;;;;;;;6.13;1.30;;;;;;;;;;5092822;28;20048;-91
2023/03/25 05:44:07;;;;;;;6.05;1.10;;;;;;;;;;5093057;28;20052;-92
2023/03/25 05:46:34;;;;;;;2.60;0.63;;;;;;;;;;5093195;28;20051;-92
2023/03/25 05:49:02;;;;;;;1.38;0.65;;;;;;;;;;5093176;28;20487;-92
2023/03/25 05:51:32;;;;;;;0.40;0.40;;;;;;;;;;5093303;28;20050;-93
2023/03/25 05:54:00;;;;;;;1.15;0.50;;;;;;;;;;5093622;28;20479;-92
2023/03/25 05:56:28;;;;;;;2.65;0.60;;;;;;;;;;5093093;28;20079;-92
2023/03/25 05:58:56;;;;;;;5.22;0.50;;;;;;;;;;5093226;28;20060;-92
2023/03/25 06:01:23;;;;;;;2.47;0.70;;;;;;;;;;5106017;28;20058;-92
2023/03/25 06:04:01;;;;;;;0.40;0.40;;;;;;;;;;5096510;28;20040;-92
2023/03/25 06:06:30;;;;;;;1.40;0.57;;;;;;;;;;5092766;28;20044;-91
2023/03/25 06:08:58;;;;;;;1.33;0.55;;;;;;;;;;5092843;28;20048;-92
2023/03/25 06:11:25;;;;;;;2.00;0.85;;;;;;;;;;5093925;28;20054;-92
2023/03/25 06:13:53;;;;;;;1.60;0.30;;;;;;;;;;5108795;28;20016;-91
2023/03/25 06:16:21;;;;;;;1.35;0.30;;;;;;;;;;5099536;28;20082;-91
2023/03/25 06:18:50;;;;;;;0.70;0.30;;;;;;;;;;5092879;28;20384;-90
2023/03/25 06:21:18;;;;;;;0.40;0.40;;;;;;;;;;5093293;28;20058;-92
2023/03/25 06:23:49;;;;;;;0.63;0.40;;;;;;;;;;5092719;28;20557;-91
2023/03/25 06:26:16;;;;;;;1.40;0.40;;;;;;;;;;5092742;28;20115;-92
2023/03/25 06:28:44;;;;;;;0.65;0.40;;;;;;;;;;5092520;28;20483;-90
2023/03/25 06:31:15;;;;;;;1.38;0.57;;;;;;;;;;5094999;28;20479;-91
2023/03/25 06:33:43;;;;;;;0.70;0.40;;;;;;;;;;5097741;28;20048;-94
2023/03/25 06:36:12;;;;;;;1.30;0.50;;;;;;;;;;5095845;28;20059;-90
2023/03/25 06:38:39;;;;;;;1.52;0.60;;;;;;;;;;5096495;28;20052;-90
2023/03/25 06:41:06;;;;;;;2.67;0.65;;;;;;;;;;5097277;28;20480;-91
2023/03/25 06:43:34;;;;;;;1.27;0.30;;;;;;;;;;5096737;28;20059;-91
2023/03/25 06:46:01;;;;;;;1.70;0.50;;;;;;;;;;5097717;28;20142;-91
2023/03/25 06:48:29;;;;;;;2.05;1.00;;;;;;;;;;5097450;28;20052;-91
2023/03/25 06:50:56;;;;;;;1.70;0.80;;;;;;;;;;5096649;28;20502;-90
2023/03/25 06:53:23;;;;;;;1.17;0.47;;;;;;;;;;5097458;28;20067;-90
2023/03/25 06:55:51;;;;;;;1.17;0.50;;;;;;;;;;5096767;28;20052;-91
2023/03/25 06:58:18;;;;;;;0.95;0.20;;;;;;;;;;5098392;28;20055;-87
2023/03/25 07:00:46;;;;;;;0.98;0.30;;;;;;;;;;5098038;28;20514;-92
2023/03/25 07:03:13;;;;;;;0.77;0.35;;;;;;;;;;5098197;28;20066;-93
2023/03/25 07:05:42;;;;;;;0.52;0.35;;;;;;;;;;5096673;28;20051;-90
2023/03/25 07:08:09;;;;;;;3.33;0.47;;;;;;;;;;5095667;28;20051;-90
2023/03/25 07:10:38;;;;;;;0.80;0.40;;;;;;;;;;5096048;28;20048;-94
2023/03/25 07:13:05;;;;;;;0.30;0.30;;;;;;;;;;5096655;28;20052;-90
2023/03/25 07:15:34;;;;;;;0.30;0.30;;;;;;;;;;5095467;28;20138;-91
2023/03/25 07:18:01;;;;;;;1.02;0.52;;;;;;;;;;5095489;28;20047;-88
2023/03/25 07:20:28;;;;;;;1.10;0.43;;;;;;;;;;5095662;28;20130;-92
2023/03/25 07:22:55;;;;;;;0.77;0.45;;;;;;;;;;5094959;28;20048;-90
2023/03/25 07:25:22;;;;;;;1.88;0.40;;;;;;;;;;5096202;28;20048;-90
2023/03/25 07:27:50;;;;;;;0.82;0.40;;;;;;;;;;5097450;28;20407;-90
2023/03/25 07:30:17;;;;;;;2.50;0.40;;;;;;;;;;5111215;28;20051;-89
2023/03/25 07:32:45;;;;;;;3.50;0.50;;;;;;;;;;5095527;28;20062;-90
2023/03/25 07:35:12;;;;;;;1.38;0.40;;;;;;;;;;5096036;28;20048;-90
2023/03/25 07:37:39;;;;;;;2.10;0.40;;;;;;;;;;5095002;28;20079;-90
2023/03/25 07:40:07;;;;;;;1.23;0.40;;;;;;;;;;5096551;28;20048;-92
2023/03/25 07:42:36;;;;;;;2.17;0.40;;;;;;;;;;5093901;28;20052;-90
2023/03/25 07:45:04;;;;;;;1.25;0.40;;;;;;;;;;5095081;28;20044;-90
2023/03/25 07:47:31;;;;;;;2.08;0.30;;;;;;;;;;5094822;28;20549;-90
2023/03/25 07:49:59;;;;;;;0.60;0.55;;;;;;;;;;5095015;28;20487;-90
2023/03/25 07:52:26;;;;;;;0.85;0.22;;;;;;;;;;5093762;28;20142;-90
2023/03/25 07:54:53;;;;;;;1.88;0.30;;;;;;;;;;5094682;28;20465;-91
2023/03/25 07:57:20;;;;;;;1.15;0.40;;;;;;;;;;5094628;28;20052;-90
2023/03/25 07:59:48;;;;;;;0.80;0.20;;;;;;;;;;5095547;28;20059;-90
2023/03/25 08:02:15;;;;;;;1.00;0.30;;;;;;;;;;5094657;28;20058;-90
2023/03/25 08:04:42;;;;;;;0.50;0.28;;;;;;;;;;5095403;28;20078;-89
2023/03/25 08:07:10;;;;;;;1.63;0.30;;;;;;;;;;5094613;28;20044;-90
2023/03/25 08:09:37;;;;;;;0.45;0.20;;;;;;;;;;5094527;28;20052;-90
2023/03/25 08:12:04;;;;;;;0.20;0.20;;;;;;;;;;5094150;28;20062;-89
2023/03/25 08:14:32;;;;;;;0.55;0.40;;;;;;;;;;5094454;28;20055;-90
2023/03/25 08:16:59;;;;;;;1.73;0.52;;;;;;;;;;5095381;28;20044;-90
2023/03/25 08:19:26;;;;;;;1.10;0.40;;;;;;;;;;5094732;28;20412;-92
2023/03/25 08:21:54;;;;;;;2.40;0.60;;;;;;;;;;5097392;28;20055;-90
2023/03/25 08:24:23;;;;;;;0.30;0.20;;;;;;;;;;5101869;28;20075;-88
2023/03/25 08:26:50;;;;;;;0.50;0.30;;;;;;;;;;5094777;28;20500;-92
2023/03/25 08:29:19;;;;;;;1.25;0.20;;;;;;;;;;5094112;28;20109;-90
2023/03/25 08:31:50;;;;;;;0.52;0.30;;;;;;;;;;5094098;28;20134;-91
2023/03/25 08:34:19;;;;;;;1.20;0.30;;;;;;;;;;5094007;28;20399;-90
2023/03/25 08:36:46;;;;;;;0.32;0.20;;;;;;;;;;5094212;28;20052;-90
2023/03/25 08:39:16;;;;;;;2.03;0.30;;;;;;;;;;5094796;28;20048;-90
2023/03/25 08:41:44;;;;;;;2.58;0.43;;;;;;;;;;5095714;28;20071;-91
2023/03/25 08:44:11;;;;;;;1.80;0.25;;;;;;;;;;5111860;28;20067;-90
2023/03/25 08:46:38;;;;;;;0.88;0.40;;;;;;;;;;5098179;28;20048;-91
2023/03/25 08:49:06;;;;;;;1.48;0.20;;;;;;;;;;5094879;28;20496;-92
2023/03/25 08:51:33;;;;;;;0.88;0.20;;;;;;;;;;5082811;28;20040;-90
2023/03/25 08:54:00;;;;;;;0.88;0.30;;;;;;;;;;5081392;28;20048;-90
2023/03/25 08:56:28;;;;;;;0.47;0.40;;;;;;;;;;5083255;28;20040;-91
2023/03/25 08:58:55;;;;;;;0.75;0.20;;;;;;;;;;5082474;28;20052;-92
2023/03/25 09:01:23;;;;;;;0.68;0.20;;;;;;;;;;5083775;28;20458;-90
2023/03/25 09:03:51;;;;;;;0.43;0.28;;;;;;;;;;5082014;28;20102;-89
2023/03/25 09:06:19;;;;;;;0.63;0.10;;;;;;;;;;5085802;28;20058;-91
2023/03/25 09:08:46;;;;;;;3.22;3.03;;;;;;;;;;5079034;28;20055;-91
2023/03/25 09:11:16;;;;;;;0.63;0.32;;;;;;;;;;5073965;28;20080;-91
2023/03/25 09:14:02;;;;;;;0.43;0.17;;;;;;;;;;5075599;28;20056;-92
2023/03/25 09:16:29;;;;;;;;;;;;;;;;;;5057206;28;20131;-92
2023/03/25 09:18:57;;;;;;;1.55;0.50;;;;;;;;;;5073807;28;19982;-90
2023/03/25 09:21:24;;;;;;;0.38;0.10;;;;;;;;;;5074429;28;20465;-90
2023/03/25 09:23:51;;;;;;;1.92;0.50;;;;;;;;;;5056455;28;20562;-90
2023/03/25 09:26:18;;;;;;;0.50;0.40;;;;;;;;;;5072900;28;20057;-90
2023/03/25 09:28:46;;;;;;;1.27;0.45;;;;;;;;;;5072695;28;20052;-90
2023/03/25 09:31:14;;;;;;;0.35;0.32;;;;;;;;;;5056541;28;20118;-91
2023/03/25 09:33:41;;;;;;;2.17;1.65;;;;;;;;;;5073904;28;20477;-89
2023/03/25 09:36:08;;;;;;;1.95;0.50;;;;;;;;;;5056493;28;20057;-89
2023/03/25 09:38:36;;;;;;;0.90;0.63;;;;;;;;;;5056042;28;20056;-90
2023/03/25 09:41:05;;;;;;;1.17;0.40;;;;;;;;;;5072950;28;20056;-89
2023/03/25 09:43:51;;;;;;;3.22;0.60;;;;;;;;;;5073301;28;20105;-90
2023/03/25 09:46:18;;;;;;;1.15;0.40;;;;;;;;;;5073829;28;20045;-90
2023/03/25 09:48:46;;;;;;;1.17;0.40;;;;;;;;;;5080623;28;20044;-88
2023/03/25 09:51:20;;;;;;;0.82;0.35;;;;;;;;;;5074976;28;20051;-89
2023/03/25 09:53:55;;;;;;;1.92;0.40;;;;;;;;;;5072525;28;20055;-90
2023/03/25 09:56:25;;;;;;;2.28;0.50;;;;;;;;;;5074092;28;20481;-91
2023/03/25 09:58:54;;;;;;;1.60;0.55;;;;;;;;;;5092429;28;20055;-90
2023/03/25 10:01:30;;;;;;;0.40;0.30;;;;;;;;;;5078748;28;20124;-89
2023/03/25 10:04:00;;;;;;;1.75;0.50;;;;;;;;;;5079122;28;20384;-90
2023/03/25 10:06:30;;;;;;;1.10;0.43;;;;;;;;;;5081928;28;20491;-91
2023/03/25 10:09:17;;;;;;;1.50;0.30;;;;;;;;;;5084931;28;20049;-91
2023/03/25 10:12:02;;;;;;;1.98;0.30;;;;;;;;;;5084237;28;20059;-90
2023/03/25 10:14:37;;;;;;;2.70;0.40;;;;;;;;;;5084999;28;20048;-91
2023/03/25 10:17:10;;;;;;;2.75;0.63;;;;;;;;;;5084197;28;20044;-91
2023/03/25 10:19:44;;;;;;;2.05;0.40;;;;;;;;;;5084562;28;20147;-90
2023/03/25 10:22:17;;;;;;;0.65;0.52;;;;;;;;;;5107688;28;20040;-91
2023/03/25 10:24:48;;;;;;;1.25;0.50;;;;;;;;;;5090039;28;20506;-91
2023/03/25 10:27:19;;;;;;;3.13;0.47;;;;;;;;;;5097583;28;20051;-91
2023/03/25 10:29:56;;;;;;;18.00;2.22;;;;;;;;;;5096361;28;20056;-90
2023/03/25 10:32:30;;;;;;;1.55;0.40;;;;;;;;;;5096583;28;20052;-89
2023/03/25 10:34:59;;;;;;;3.35;0.68;;;;;;;;;;5097222;28;20487;-93
2023/03/25 10:37:30;;;;;;;2.10;0.75;;;;;;;;;;5095721;28;20066;-90
2023/03/25 10:40:07;;;;;;;3.45;0.60;;;;;;;;;;5096206;28;20051;-90
2023/03/25 10:42:39;;;;;;;3.80;0.70;;;;;;;;;;5097617;28;20484;-91
2023/03/25 10:45:14;;;;;;;4.10;0.77;;;;;;;;;;5096576;28;20076;-91
2023/03/25 10:47:46;;;;;;;0.70;0.60;;;;;;;;;;5108248;28;20050;-90
2023/03/25 10:50:17;;;;;;;4.22;1.48;;;;;;;;;;5098403;28;20048;-90
2023/03/25 10:52:44;;;;;;;3.40;1.13;;;;;;;;;;5095616;28;20051;-90
2023/03/25 10:55:24;;;;;;;2.65;0.90;;;;;;;;;;5096937;28;20040;-90
2023/03/25 10:57:52;;;;;;;3.30;0.90;;;;;;;;;;5095772;28;20051;-90
2023/03/25 11:00:19;;;;;;;3.28;0.85;;;;;;;;;;5096205;28;20079;-90
2023/03/25 11:02:47;;;;;;;3.95;1.65;;;;;;;;;;5096832;28;20059;-91
2023/03/25 11:05:17;;;;;;;6.85;1.10;;;;;;;;;;5095793;28;20044;-91
2023/03/25 11:07:54;;;;;;;4.93;1.40;;;;;;;;;;5096103;28;20395;-90
2023/03/25 11:10:21;;;;;;;2.38;1.17;;;;;;;;;;5097599;28;20075;-90
2023/03/25 11:12:50;;;;;;;1.83;1.45;;;;;;;;;;5113011;28;20059;-90
2023/03/25 11:15:25;;;;;;;6.00;1.60;;;;;;;;;;5095523;28;20483;-90
2023/03/25 11:17:58;;;;;;;8.57;2.47;;;;;;;;;;5096160;28;20051;-90
2023/03/25 11:20:28;;;;;;;3.92;1.35;;;;;;;;;;5096321;28;20093;-90
2023/03/25 11:22:59;;;;;;;6.43;1.30;;;;;;;;;;5097921;28;20052;-91
2023/03/25 11:25:28;;;;;;;9.32;1.35;;;;;;;;;;5095257;28;20046;-91
2023/03/25 11:27:57;;;;;;;6.38;1.52;;;;;;;;;;5095559;28;20048;-90
2023/03/25 11:30:25;;;;;;;1.75;1.00;;;;;;;;;;5095152;28;20051;-91
2023/03/25 11:33:02;;;;;;;2.58;0.80;;;;;;;;;;5096449;28;20384;-90
2023/03/25 11:35:31;;;;;;;5.13;1.35;;;;;;;;;;5095891;28;20479;-91
2023/03/25 11:37:59;;;;;;;3.90;1.20;;;;;;;;;;5096122;28;20095;-91
2023/03/25 11:40:27;;;;;;;4.50;1.30;;;;;;;;;;5096262;28;20056;-90
2023/03/25 11:42:56;;;;;;;2.78;1.20;;;;;;;;;;5095013;28;20084;-90
2023/03/25 11:45:44;;;;;;;3.53;0.90;;;;;;;;;;5094589;28;20063;-92
2023/03/25 11:48:15;;;;;;;4.30;1.27;;;;;;;;;;5095164;28;20052;-91
2023/03/25 11:50:59;;;;;;;6.47;1.30;;;;;;;;;;5095661;28;20043;-91
2023/03/25 11:53:27;;;;;;;4.60;1.13;;;;;;;;;;5094459;28;20422;-93
2023/03/25 11:55:55;;;;;;;4.53;1.45;;;;;;;;;;5094360;28;20048;-88
2023/03/25 11:58:26;;;;;;;5.30;1.00;;;;;;;;;;5095667;28;20494;-89
2023/03/25 12:01:00;;;;;;;3.10;1.20;;;;;;;;;;5093246;28;20483;-87
2023/03/25 12:03:27;;;;;;;5.47;1.20;;;;;;;;;;5075714;28;20502;-87
2023/03/25 12:06:05;;;;;;;3.67;1.00;;;;;;;;;;5075317;28;20455;-89
2023/03/25 12:08:51;;;;;;;7.07;1.30;;;;;;;;;;5058457;28;20481;-91
2023/03/25 12:11:39;;;;;;;3.08;0.82;;;;;;;;;;5057773;28;20088;-91
2023/03/25 12:14:18;;;;;;;3.42;0.90;;;;;;;;;;5058455;28;20048;-92
2023/03/25 12:16:57;;;;;;;2.03;0.90;;;;;;;;;;5074352;28;20048;-89
2023/03/25 12:19:24;;;;;;;3.25;0.80;;;;;;;;;;5073943;28;20064;-89
2023/03/25 12:22:10;;;;;;;3.72;0.90;;;;;;;;;;5074631;28;20052;-88
2023/03/25 12:24:41;;;;;;;3.22;0.40;;;;;;;;;;5076186;28;20052;-88
2023/03/25 12:27:34;;;;;;;1.25;0.40;;;;;;;;;;5085278;28;20100;-90
2023/03/25 12:30:20;;;;;;;0.30;0.28;;;;;;;;;;5058709;28;20044;-91
2023/03/25 12:33:00;;;;;;;0.40;0.10;;;;;;;;;;5059015;28;20083;-90
2023/03/25 12:35:36;;;;;;;0.55;0.20;;;;;;;;;;5075458;28;20049;-90
2023/03/25 12:38:03;;;;;;;2.73;0.23;;;;;;;;;;5058389;28;20140;-93
2023/03/25 12:40:44;;;;;;;1.45;0.17;;;;;;;;;;5074748;28;20048;-92
2023/03/25 12:43:19;;;;;;;1.10;0.10;;;;;;;;;;5059554;28;20051;-93
2023/03/25 12:45:47;;;;;;;0.10;0.10;;;;;;;;;;5076494;28;20055;-93
2023/03/25 12:48:25;;;;;;;0.20;0.15;;;;;;;;;;5059368;28;20052;-92
2023/03/25 12:51:19;;;;;;;0.10;0.08;;;;;;;;;;5075579;28;20052;-91
2023/03/25 12:54:06;;;;;;;3.03;0.30;;;;;;;;;;5046171;28;20056;-94
2023/03/25 12:56:39;;;;;;;0.32;0.10;;;;;;;;;;5076635;28;20058;-94
2023/03/25 12:59:07;;;;;;;;;;;;;;;;;;5059755;28;20467;-92
2023/03/25 13:01:41;;;;;;;4.25;0.63;;;;;;;;;;5074547;28;20015;-90
2023/03/25 13:04:09;;;;;;;0.20;0.10;;;;;;;;;;5059615;28;20054;-90
2023/03/25 13:06:57;;;;;;;0.68;0.20;;;;;;;;;;5063405;28;20127;-91
2023/03/25 13:09:36;;;;;;;0.20;0.10;;;;;;;;;;5060928;28;20044;-90
2023/03/25 13:12:27;;;;;;;1.10;0.32;;;;;;;;;;5073051;28;20564;-90
2023/03/25 13:14:57;;;;;;;1.27;0.43;;;;;;;;;;5037963;28;20094;-89
2023/03/25 13:17:29;;;;;;;0.10;0.10;;;;;;;;;;5056911;28;20135;-91
2023/03/25 13:19:59;;;;;;;0.20;0.10;;;;;;;;;;5073204;28;20078;-91
2023/03/25 13:22:31;;;;;;;0.65;0.10;;;;;;;;;;5073631;28;20082;-90
2023/03/25 13:25:00;;;;;;;0.82;0.20;;;;;;;;;;5073286;28;20050;-90
2023/03/25 13:27:32;;;;;;;0.52;0.30;;;;;;;;;;5059506;28;20045;-90
2023/03/25 13:30:01;;;;;;;0.20;0.20;;;;;;;;;;5073457;28;20055;-90
2023/03/25 13:32:32;;;;;;;0.13;0.13;;;;;;;;;;5073483;28;20060;-90
2023/03/25 13:35:03;;;;;;;1.23;0.30;;;;;;;;;;5056531;28;20076;-91
2023/03/25 13:37:38;;;;;;;1.90;0.50;;;;;;;;;;5057213;28;20136;-90
2023/03/25 13:40:10;;;;;;;3.30;0.63;;;;;;;;;;5081907;28;20076;-90
2023/03/25 13:42:54;;;;;;;3.83;0.60;;;;;;;;;;5074154;28;20077;-90
2023/03/25 13:45:23;;;;;;;2.85;0.60;;;;;;;;;;5074414;28;20480;-91
2023/03/25 13:48:07;;;;;;;1.38;0.35;;;;;;;;;;5057479;28;20485;-91
2023/03/25 13:50:37;;;;;;;0.70;0.30;;;;;;;;;;5055609;28;20049;-90
2023/03/25 13:53:09;;;;;;;1.95;1.02;;;;;;;;;;5073577;28;20067;-90
2023/03/25 13:55:39;;;;;;;1.58;0.40;;;;;;;;;;5073140;28;20398;-92
2023/03/25 13:58:25;;;;;;;1.08;0.45;;;;;;;;;;5074702;28;20045;-90
2023/03/25 14:00:59;;;;;;;0.85;0.50;;;;;;;;;;5073486;28;20041;-91
2023/03/25 14:03:39;;;;;;;1.85;0.40;;;;;;;;;;5073035;28;20075;-90
2023/03/25 14:06:24;;;;;;;2.88;0.65;;;;;;;;;;5056281;28;20049;-90
2023/03/25 14:09:05;;;;;;;2.47;0.30;;;;;;;;;;5056709;28;20048;-91
2023/03/25 14:11:52;;;;;;;1.92;0.30;;;;;;;;;;5055333;28;20580;-90
2023/03/25 14:14:21;;;;;;;1.85;0.45;;;;;;;;;;5072702;28;20052;-91
2023/03/25 14:16:53;;;;;;;0.47;0.30;;;;;;;;;;5073844;28;20240;-90
2023/03/25 14:19:30;;;;;;;0.88;0.50;;;;;;;;;;5072756;28;20044;-90
2023/03/25 14:21:58;;;;;;;2.95;0.40;;;;;;;;;;5073744;28;20485;-89
2023/03/25 14:24:31;;;;;;;3.38;0.52;;;;;;;;;;5074150;28;20106;-90
2023/03/25 14:27:03;;;;;;;0.90;0.40;;;;;;;;;;5073055;28;20052;-91
2023/03/25 14:29:57;;;;;;;1.40;0.38;;;;;;;;;;5073611;28;20057;-90
2023/03/25 14:32:31;;;;;;;1.20;0.13;;;;;;;;;;5072194;28;20479;-90
2023/03/25 14:35:18;;;;;;;2.25;0.50;;;;;;;;;;5072578;28;20048;-88
2023/03/25 14:37:45;;;;;;;5.38;0.70;;;;;;;;;;5056025;28;20061;-90
2023/03/25 14:40:31;;;;;;;3.72;0.40;;;;;;;;;;5073764;28;20416;-89
2023/03/25 14:42:59;;;;;;;3.15;0.45;;;;;;;;;;5055885;28;20062;-91
2023/03/25 14:45:37;;;;;;;0.68;0.30;;;;;;;;;;5072580;28;20057;-90
2023/03/25 14:48:23;;;;;;;1.02;0.70;;;;;;;;;;5056403;28;20044;-90
2023/03/25 14:51:09;;;;;;;0.95;0.30;;;;;;;;;;5072926;28;20554;-90
2023/03/25 14:53:38;;;;;;;1.55;0.40;;;;;;;;;;5090228;28;20056;-89
2023/03/25 14:56:07;;;;;;;0.85;0.35;;;;;;;;;;5083867;28;20416;-92
2023/03/25 14:58:37;;;;;;;1.60;0.50;;;;;;;;;;5059964;28;20044;-92
2023/03/25 15:01:06;;;;;;;2.65;0.43;;;;;;;;;;5059572;28;20048;-93
2023/03/25 15:03:35;;;;;;;1.08;0.40;;;;;;;;;;5077705;28;20113;-90
2023/03/25 15:06:03;;;;;;;1.25;0.63;;;;;;;;;;5075666;28;20102;-94